• Join FlightAware (Why Join?)
  • Login
  • US Flag 
02:32AM EDT


 

Airport Tracker/Info


-or-


 

Live Flight TrackerFlight Track Log ✈ N364PH ✈ 16-Apr-2013 ✈ KIAD - KORF

Flight Track Log - Related Links

Times and Time Zones

All times are in EDT time to prevent confusion due to time zone crossing. See the N364PH flight status page for this flight to view local times or setup timezone preferences in your user account.

Time Position Orientation Groundspeed Altitude Reporting Facility
EDT Latitude Longitude Course Direction KTS MPH feet Rate Location/Type
07:01PM 38.7034 -77.3061 154° Southeast  Level Estimated
07:02PM 38.6545 -77.2754 154° Southeast  Level Estimated
07:03PM 38.6057 -77.2448 154° Southeast  Level Estimated
07:04PM 38.5568 -77.2143 154° Southeast  Level Estimated
07:05PM 38.5079 -77.1837 154° Southeast  Level Estimated
07:06PM 38.4590 -77.1533 154° Southeast  Level Estimated
07:07PM 38.4102 -77.1228 154° Southeast  Level Estimated
07:08PM 38.3613 -77.0924 154° Southeast  Level Estimated
07:09PM 38.3124 -77.0621 154° Southeast  Level Estimated
07:10PM 38.2635 -77.0318 154° Southeast  Level Estimated
07:11PM 38.2146 -77.0015 154° Southeast  Level Estimated
07:12PM 38.1656 -76.9713 154° Southeast  Level Estimated
07:13PM 38.1167 -76.9411 154° Southeast  Level Estimated
07:14PM 38.0678 -76.9109 154° Southeast  Level Estimated
07:15PM 38.0188 -76.8808 154° Southeast  Level Estimated
07:16PM 37.9699 -76.8507 154° Southeast  Level Estimated
07:17PM 37.9209 -76.8207 154° Southeast  Level Estimated
07:18PM 37.8719 -76.7907 154° Southeast  Level Estimated
07:19PM 37.8229 -76.7608 154° Southeast  Level Estimated
07:20PM 37.7740 -76.7309 154° Southeast  Level Estimated
07:21PM 37.7250 -76.7010 154° Southeast  Level Estimated
07:22PM 37.6760 -76.6712 154° Southeast  Level Estimated
07:23PM 37.6270 -76.6414 154° Southeast  Level Estimated
07:24PM 37.5780 -76.6116 154° Southeast  Level Estimated
07:25PM 37.5289 -76.5819 154° Southeast  Level Estimated
07:26PM 37.4799 -76.5522 154° Southeast  Level Estimated
07:27PM 37.4309 -76.5226 154° Southeast  Level Estimated
07:28PM 37.3818 -76.4930 154° Southeast  Level Estimated
07:29PM 37.3328 -76.4634 154° Southeast  Level Estimated
07:30PM 37.2837 -76.4339 154° Southeast  Level Estimated
07:31PM 37.2346 -76.4044 154° Southeast  Level Estimated
07:32PM 37.1856 -76.3749 154° Southeast  Level Estimated
07:33PM 37.1365 -76.3455 154° Southeast  Level Estimated
07:34PM 37.0874 -76.3162 154° Southeast  Level Estimated
07:35PM 37.0383 -76.2868 155° Southeast  Level Estimated
07:36PM 36.9892 -76.2576 155° Southeast  Level Estimated
07:37PM 36.9401 -76.2283 155° Southeast  Level Estimated
07:38PM 36.8946 -76.2012 155° Southeast  Level Estimated
07:39PM 36.8946 -76.2012 302° West  Level Estimated
07:40PM 36.8946 -76.2012 302° West  Level Estimated
07:41PM 36.8946 -76.2012 302° West  Level Estimated
07:42PM 36.8946 -76.2012 302° West  Level Estimated
07:43PM 36.8946 -76.2012 302° West  Level Estimated
07:44PM 36.8946 -76.2012 302° West  Level Estimated